Terminal Aerodrome Forecast
Issued by NWS

Home | Current Version | Previous Version | Text Only | Print | Product List | Glossary Off
Versions: 1 2 3 4 5 6 7 8 9 10 11 12 13 14 15

000
FTUS43 KMPX 201739
TAFAXN
TAF
KAXN 201739Z 2018/2118 34012G18KT P6SM OVC012
     FM202100 35010KT P6SM BKN025
     FM202200 35011KT P6SM BKN040
     FM210300 33005KT P6SM FEW030
      TEMPO 2109/2113 3SM BR
     FM211400 31006KT P6SM SKC=

USA.gov is the U.S. government's official web portal to all federal, state and local government web resources and services.